Time;durP1;ratioP1;P1;durP2;ratioP2;P2;SDS_P1;SDS_P2;PMS_P1;PMS_P2;Temp;Humidity;BMP_temperature;BMP_pressure;BME280_temperature;BME280_humidity;BME280_pressure;Samples;Min_cycle;Max_cycle;Signal;HPM_P1;HPM_P2
2023/04/01 00:02:19;;;;;;;4.28;0.80;;;8.00;76.50;;;;;;5118034;27;20016;-78
2023/04/01 00:04:45;;;;;;;1.88;0.68;;;8.00;76.90;;;;;;5118065;27;20024;-78
2023/04/01 00:07:11;;;;;;;1.85;0.63;;;7.90;76.80;;;;;;5117455;27;20071;-78
2023/04/01 00:09:37;;;;;;;2.50;0.57;;;8.00;76.80;;;;;;5117858;27;20033;-77
2023/04/01 00:12:04;;;;;;;1.30;0.75;;;8.00;76.50;;;;;;5117770;27;20019;-76
2023/04/01 00:14:30;;;;;;;2.05;0.43;;;7.90;76.20;;;;;;5136235;27;20027;-76
2023/04/01 00:16:56;;;;;;;1.23;0.40;;;7.90;76.10;;;;;;5116986;27;20068;-76
2023/04/01 00:19:22;;;;;;;2.78;0.80;;;7.90;76.20;;;;;;5117063;27;20479;-76
2023/04/01 00:21:48;;;;;;;2.95;0.80;;;7.90;75.30;;;;;;5135597;27;20045;-79
2023/04/01 00:24:14;;;;;;;2.10;0.50;;;7.90;75.20;;;;;;5136204;27;20019;-76
2023/04/01 00:26:42;;;;;;;1.13;0.50;;;7.90;75.90;;;;;;5116865;27;20026;-76
2023/04/01 00:29:07;;;;;;;1.20;0.50;;;7.80;75.90;;;;;;5100704;27;20042;-75
2023/04/01 00:31:33;;;;;;;1.65;0.47;;;7.80;75.20;;;;;;5117217;27;20023;-76
2023/04/01 00:33:59;;;;;;;1.17;0.30;;;7.70;76.20;;;;;;5117089;27;20034;-76
2023/04/01 00:36:25;;;;;;;4.05;0.47;;;7.70;75.80;;;;;;5117049;27;20046;-76
2023/04/01 00:38:51;;;;;;;2.63;0.50;;;7.70;75.90;;;;;;5117457;27;20023;-76
2023/04/01 00:41:18;;;;;;;1.73;0.30;;;7.70;75.60;;;;;;5117097;27;20498;-76
2023/04/01 00:43:48;;;;;;;1.73;0.43;;;7.70;76.10;;;;;;5117202;27;20019;-75
2023/04/01 00:46:14;;;;;;;0.68;0.38;;;7.60;75.90;;;;;;5116970;27;20043;-76
2023/04/01 00:48:44;;;;;;;1.15;0.38;;;7.60;76.50;;;;;;5099697;27;20166;-76
2023/04/01 00:51:14;;;;;;;2.17;0.43;;;7.60;77.30;;;;;;5116635;27;20092;-76
2023/04/01 00:53:45;;;;;;;1.05;0.20;;;7.50;77.50;;;;;;5116998;27;20219;-76
2023/04/01 00:56:15;;;;;;;2.88;0.30;;;7.50;77.30;;;;;;5116941;27;20467;-76
2023/04/01 00:58:46;;;;;;;1.85;0.28;;;7.50;78.20;;;;;;5116924;27;20126;-76
2023/04/01 01:01:12;;;;;;;0.25;0.13;;;7.50;77.40;;;;;;5116541;27;20030;-75
2023/04/01 01:03:37;;;;;;;1.30;0.38;;;7.40;77.80;;;;;;5116290;27;20031;-76
2023/04/01 01:06:10;;;;;;;0.40;0.22;;;7.50;77.90;;;;;;5116873;27;20099;-75
2023/04/01 01:08:43;;;;;;;0.73;0.40;;;7.40;77.10;;;;;;5116483;27;20038;-74
2023/04/01 01:11:12;;;;;;;0.70;0.10;;;7.40;77.60;;;;;;5116471;27;20106;-75
2023/04/01 01:13:52;;;;;;;0.98;0.50;;;7.30;77.20;;;;;;5116098;27;20019;-74
2023/04/01 01:16:29;;;;;;;0.75;0.40;;;7.30;78.50;;;;;;5116567;27;20030;-74
2023/04/01 01:19:21;;;;;;;0.95;0.50;;;7.20;78.70;;;;;;5134704;27;20071;-76
2023/04/01 01:22:17;;;;;;;0.73;0.20;;;7.20;78.00;;;;;;5116672;27;20038;-74
2023/04/01 01:24:59;;;;;;;2.83;0.28;;;7.20;77.80;;;;;;5116439;27;20110;-74
2023/04/01 01:27:24;;;;;;;0.15;0.00;;;7.20;78.30;;;;;;5116014;27;20031;-74
2023/04/01 01:29:59;;;;;;;0.68;0.13;;;7.30;77.50;;;;;;5115345;27;20463;-77
2023/04/01 01:32:40;;;;;;;1.65;0.25;;;7.20;77.30;;;;;;5116329;27;20126;-74
2023/04/01 01:35:26;;;;;;;1.10;0.20;;;7.20;77.40;;;;;;5116119;27;20567;-77
2023/04/01 01:37:58;;;;;;;1.38;0.40;;;7.20;76.90;;;;;;5115811;27;20027;-75
2023/04/01 01:40:25;;;;;;;0.95;0.20;;;7.30;76.60;;;;;;5116102;27;20449;-75
2023/04/01 01:42:55;;;;;;;1.27;0.40;;;7.30;76.80;;;;;;5115462;27;20023;-75
2023/04/01 01:45:25;;;;;;;0.75;0.20;;;7.30;77.50;;;;;;5115385;27;20023;-75
2023/04/01 01:47:52;;;;;;;0.40;0.10;;;7.30;78.00;;;;;;5115958;27;20038;-75
2023/04/01 01:50:21;;;;;;;0.63;0.30;;;7.30;78.30;;;;;;5099250;27;20074;-73
2023/04/01 01:52:46;;;;;;;1.45;0.20;;;7.30;79.30;;;;;;5115536;27;20062;-75
2023/04/01 01:55:29;;;;;;;1.92;0.38;;;7.30;80.70;;;;;;5116032;27;20059;-75
2023/04/01 01:57:59;;;;;;;1.15;0.40;;;7.20;81.00;;;;;;5115828;27;20023;-75
2023/04/01 02:00:26;;;;;;;0.57;0.17;;;7.10;80.50;;;;;;5115643;28;20492;-75
2023/04/01 02:02:52;;;;;;;1.45;0.15;;;7.10;80.20;;;;;;5115817;28;20472;-74
2023/04/01 02:05:23;;;;;;;0.63;0.10;;;7.10;80.50;;;;;;5116017;28;20047;-74
2023/04/01 02:07:58;;;;;;;4.65;0.20;;;7.00;79.80;;;;;;5115354;28;20420;-75
2023/04/01 02:10:28;;;;;;;0.68;0.17;;;7.00;79.80;;;;;;5115844;28;20023;-75
2023/04/01 02:12:58;;;;;;;0.95;0.30;;;7.00;81.20;;;;;;5115480;28;20447;-76
2023/04/01 02:15:30;;;;;;;0.15;0.08;;;6.90;81.40;;;;;;5115587;28;20031;-76
2023/04/01 02:17:56;;;;;;;0.17;0.10;;;6.80;80.50;;;;;;5115432;28;20023;-73
2023/04/01 02:20:23;;;;;;;0.70;0.20;;;6.80;80.90;;;;;;5133979;28;20019;-75
2023/04/01 02:22:55;;;;;;;1.42;0.22;;;6.70;82.10;;;;;;5115327;28;20056;-75
2023/04/01 02:25:25;;;;;;;1.02;0.20;;;6.80;82.50;;;;;;5115586;28;20076;-76
2023/04/01 02:27:52;;;;;;;0.30;0.00;;;6.70;81.00;;;;;;5115305;28;20057;-76
2023/04/01 02:30:18;;;;;;;0.10;0.10;;;6.60;81.50;;;;;;5115240;28;20168;-75
2023/04/01 02:32:45;;;;;;;1.27;0.10;;;6.70;81.10;;;;;;5115182;28;20091;-75
2023/04/01 02:35:13;;;;;;;0.68;0.10;;;6.60;81.30;;;;;;5115511;28;20031;-75
2023/04/01 02:37:42;;;;;;;0.75;0.10;;;6.70;81.80;;;;;;5114901;28;20019;-74
2023/04/01 02:40:11;;;;;;;0.20;0.15;;;6.60;81.90;;;;;;5133779;27;20031;-74
2023/04/01 02:42:38;;;;;;;1.50;0.50;;;6.60;82.10;;;;;;5119030;27;20027;-74
2023/04/01 02:45:05;;;;;;;2.03;0.40;;;6.70;81.60;;;;;;5119413;27;20055;-75
2023/04/01 02:47:30;;;;;;;1.33;0.45;;;6.70;81.90;;;;;;5115266;28;20044;-74
2023/04/01 02:49:58;;;;;;;1.88;0.52;;;6.80;81.50;;;;;;5115537;28;20062;-76
2023/04/01 02:52:33;;;;;;;2.95;0.70;;;6.80;81.00;;;;;;5115783;28;20034;-74
2023/04/01 02:54:58;;;;;;;1.38;0.40;;;6.90;80.80;;;;;;5115830;28;20027;-75
2023/04/01 02:57:25;;;;;;;2.63;0.60;;;7.00;80.60;;;;;;5115376;28;20396;-75
2023/04/01 02:59:50;;;;;;;5.05;0.93;;;7.00;79.40;;;;;;5115377;28;20026;-74
2023/04/01 03:02:16;;;;;;;2.75;0.80;;;7.20;79.10;;;;;;5115596;28;20023;-76
2023/04/01 03:04:42;;;;;;;2.42;0.70;;;7.20;79.60;;;;;;5115616;28;20464;-76
2023/04/01 03:07:09;;;;;;;7.30;0.90;;;7.20;78.90;;;;;;5115143;28;20032;-75
2023/04/01 03:09:36;;;;;;;3.67;0.70;;;7.30;78.40;;;;;;5115230;28;20046;-75
2023/04/01 03:12:02;;;;;;;2.97;0.80;;;7.30;78.80;;;;;;5115589;28;20474;-75
2023/04/01 03:14:27;;;;;;;2.67;0.77;;;7.30;79.30;;;;;;5115519;28;20030;-75
2023/04/01 03:16:53;;;;;;;5.53;0.90;;;7.40;79.70;;;;;;5114992;28;20460;-75
2023/04/01 03:19:19;;;;;;;5.00;1.02;;;7.30;81.10;;;;;;5115323;28;20019;-76
2023/04/01 03:21:44;;;;;;;6.28;0.98;;;7.30;80.30;;;;;;5115212;28;20508;-75
2023/04/01 03:24:10;;;;;;;3.95;0.90;;;7.20;80.30;;;;;;5115003;28;20084;-75
2023/04/01 03:26:36;;;;;;;7.05;1.25;;;7.20;80.70;;;;;;5115109;28;20031;-75
2023/04/01 03:29:01;;;;;;;4.20;0.70;;;7.20;80.80;;;;;;5114713;28;20408;-75
2023/04/01 03:31:27;;;;;;;3.05;0.70;;;7.20;80.70;;;;;;5114717;28;20030;-75
2023/04/01 03:33:53;;;;;;;4.80;1.00;;;7.20;80.80;;;;;;5116156;28;20030;-75
2023/04/01 03:36:19;;;;;;;5.70;0.63;;;7.20;80.40;;;;;;5115036;28;20480;-75
2023/04/01 03:38:44;;;;;;;3.95;0.90;;;7.20;80.70;;;;;;5097957;28;20028;-75
2023/04/01 03:41:17;;;;;;;4.30;1.13;;;7.20;79.90;;;;;;5114910;28;20118;-75
2023/04/01 03:43:43;;;;;;;4.95;1.25;;;7.30;80.30;;;;;;5114562;28;20137;-75
2023/04/01 03:46:09;;;;;;;3.33;0.77;;;7.20;79.70;;;;;;5114364;28;20132;-75
2023/04/01 03:48:35;;;;;;;4.05;0.90;;;7.20;79.20;;;;;;5114473;28;20085;-75
2023/04/01 03:51:01;;;;;;;2.50;0.60;;;7.30;79.30;;;;;;5097646;28;20066;-75
2023/04/01 03:53:26;;;;;;;3.60;0.70;;;7.10;79.70;;;;;;5099524;28;20036;-75
2023/04/01 03:55:52;;;;;;;3.15;0.80;;;7.10;80.10;;;;;;5115317;28;20030;-77
2023/04/01 03:58:18;;;;;;;5.53;1.13;;;7.20;79.90;;;;;;5114484;28;20027;-76
2023/04/01 04:00:45;;;;;;;2.05;0.57;;;7.10;80.10;;;;;;5114094;28;20015;-77
2023/04/01 04:03:11;;;;;;;2.63;0.77;;;7.10;81.00;;;;;;5114498;28;20024;-76
2023/04/01 04:05:37;;;;;;;4.03;0.75;;;7.10;80.70;;;;;;5114625;28;20016;-76
2023/04/01 04:08:02;;;;;;;1.17;0.60;;;7.10;80.90;;;;;;5114136;28;20137;-76
2023/04/01 04:10:29;;;;;;;3.13;0.73;;;7.10;81.40;;;;;;5114288;28;20383;-76
2023/04/01 04:12:54;;;;;;;1.90;0.52;;;7.00;81.10;;;;;;5114104;28;20042;-76
2023/04/01 04:15:20;;;;;;;1.40;0.30;;;7.00;80.80;;;;;;5115331;28;20110;-76
2023/04/01 04:17:47;;;;;;;2.25;0.28;;;7.00;80.20;;;;;;5114227;28;20428;-75
2023/04/01 04:20:13;;;;;;;0.35;0.30;;;7.00;79.70;;;;;;5096765;28;20028;-75
2023/04/01 04:22:39;;;;;;;0.85;0.30;;;7.00;79.80;;;;;;5113994;28;20423;-75
2023/04/01 04:25:05;;;;;;;1.80;0.40;;;6.90;80.70;;;;;;5113912;28;20024;-75
2023/04/01 04:27:31;;;;;;;1.38;0.40;;;6.90;82.10;;;;;;5113672;28;20036;-75
2023/04/01 04:29:57;;;;;;;0.85;0.10;;;6.80;80.60;;;;;;5113558;28;20060;-76
2023/04/01 04:32:23;;;;;;;0.40;0.10;;;6.70;80.50;;;;;;5113648;28;20020;-76
2023/04/01 04:34:49;;;;;;;0.93;0.10;;;6.60;81.20;;;;;;5114115;28;20026;-76
2023/04/01 04:37:14;;;;;;;0.50;0.13;;;6.50;79.90;;;;;;5113495;28;20293;-76
2023/04/01 04:39:40;;;;;;;0.03;0.00;;;6.50;80.20;;;;;;5113619;28;20028;-75
2023/04/01 04:42:06;;;;;;;1.48;0.30;;;6.60;79.30;;;;;;5113680;28;20015;-76
2023/04/01 04:44:31;;;;;;;0.57;0.10;;;6.50;79.60;;;;;;5113671;28;20023;-75
2023/04/01 04:46:57;;;;;;;0.63;0.30;;;6.50;79.60;;;;;;5113320;28;20104;-75
2023/04/01 04:49:22;;;;;;;2.78;0.30;;;6.50;80.30;;;;;;5113466;28;20047;-74
2023/04/01 04:51:48;;;;;;;1.40;0.40;;;6.40;79.70;;;;;;5113773;28;20088;-75
2023/04/01 04:54:14;;;;;;;0.98;0.40;;;6.50;79.70;;;;;;5113305;28;20032;-76
2023/04/01 04:56:42;;;;;;;1.38;0.57;;;6.50;79.60;;;;;;5096134;28;20024;-75
2023/04/01 04:59:07;;;;;;;1.50;0.20;;;6.50;80.30;;;;;;5113365;28;20024;-76
2023/04/01 05:01:34;;;;;;;2.05;0.50;;;6.60;79.60;;;;;;5096195;28;20028;-76
2023/04/01 05:04:00;;;;;;;4.75;1.90;;;6.60;79.40;;;;;;5113612;28;20102;-75
2023/04/01 05:06:29;;;;;;;1.88;0.98;;;6.80;78.80;;;;;;5113236;28;20055;-76
2023/04/01 05:08:55;;;;;;;3.35;0.68;;;6.80;78.70;;;;;;5112954;28;20032;-76
2023/04/01 05:11:21;;;;;;;2.72;0.68;;;6.80;79.00;;;;;;5114303;28;20024;-76
2023/04/01 05:13:47;;;;;;;2.88;0.45;;;6.80;78.80;;;;;;5113052;28;20034;-75
2023/04/01 05:16:16;;;;;;;1.95;0.65;;;6.90;80.20;;;;;;5112970;28;20077;-75
2023/04/01 05:18:42;;;;;;;3.53;1.00;;;6.90;79.30;;;;;;5113071;28;20122;-75
2023/04/01 05:21:10;;;;;;;2.10;0.40;;;6.90;79.70;;;;;;5112964;28;20059;-75
2023/04/01 05:23:36;;;;;;;1.13;0.40;;;6.90;78.80;;;;;;5113134;28;20357;-76
2023/04/01 05:26:04;;;;;;;1.65;0.47;;;7.00;78.50;;;;;;5112653;28;20019;-78
2023/04/01 05:28:30;;;;;;;2.60;0.65;;;7.00;77.80;;;;;;5112853;28;20027;-78
2023/04/01 05:30:59;;;;;;;2.72;0.40;;;7.10;77.90;;;;;;5112626;28;20023;-77
2023/04/01 05:33:25;;;;;;;1.35;0.30;;;7.00;77.40;;;;;;5112844;28;20058;-79
2023/04/01 05:35:50;;;;;;;3.10;0.43;;;7.10;77.50;;;;;;5112675;28;20472;-78
2023/04/01 05:38:16;;;;;;;2.40;0.55;;;7.10;77.70;;;;;;5113281;28;20028;-77
2023/04/01 05:40:43;;;;;;;1.45;0.47;;;7.00;77.70;;;;;;5112024;28;20122;-77
2023/04/01 05:43:08;;;;;;;0.55;0.30;;;7.00;77.20;;;;;;5112284;28;20027;-78
2023/04/01 05:45:34;;;;;;;2.30;0.60;;;7.10;77.20;;;;;;5112055;28;20036;-77
2023/04/01 05:48:00;;;;;;;1.95;0.50;;;7.10;77.10;;;;;;5112477;28;20072;-78
2023/04/01 05:50:26;;;;;;;2.40;0.50;;;7.20;77.10;;;;;;5112001;28;20059;-77
2023/04/01 05:52:52;;;;;;;3.92;1.00;;;7.20;76.40;;;;;;5111982;28;20111;-77
2023/04/01 05:55:17;;;;;;;1.35;0.50;;;7.20;77.40;;;;;;5112194;28;20020;-77
2023/04/01 05:57:46;;;;;;;1.70;0.70;;;7.20;77.40;;;;;;5112266;28;20028;-77
2023/04/01 06:00:12;;;;;;;1.08;0.40;;;7.20;76.30;;;;;;5112192;28;20468;-78
2023/04/01 06:02:38;;;;;;;1.50;0.80;;;7.20;76.40;;;;;;5112510;28;20034;-77
2023/04/01 06:05:27;;;;;;;2.70;0.40;;;7.30;77.40;;;;;;5112345;28;20376;-76
2023/04/01 06:08:08;;;;;;;2.05;0.20;;;7.30;77.40;;;;;;5113605;28;20032;-77
2023/04/01 06:10:51;;;;;;;1.67;0.50;;;7.30;77.30;;;;;;5111959;28;20118;-77
2023/04/01 06:13:38;;;;;;;1.52;0.38;;;7.20;77.00;;;;;;5112057;28;20028;-76
2023/04/01 06:16:24;;;;;;;1.88;0.40;;;7.30;76.60;;;;;;5114023;28;20059;-76
2023/04/01 06:19:24;;;;;;;2.75;0.73;;;7.40;77.00;;;;;;5116103;28;20024;-75
2023/04/01 06:22:11;;;;;;;3.20;1.48;;;7.40;76.40;;;;;;5116599;28;20028;-76
2023/04/01 06:25:21;;;;;;;1.30;0.50;;;7.50;76.20;;;;;;5116199;28;20057;-75
2023/04/01 06:27:52;;;;;;;2.03;0.70;;;7.50;75.80;;;;;;5095390;28;20039;-75
2023/04/01 06:30:46;;;;;;;3.67;0.80;;;7.50;75.20;;;;;;5116514;28;20054;-76
2023/04/01 06:33:46;;;;;;;4.00;1.08;;;7.50;75.50;;;;;;5116082;28;20502;-75
2023/04/01 06:36:36;;;;;;;5.85;0.80;;;7.50;76.00;;;;;;5115869;28;20023;-77
2023/04/01 06:39:27;;;;;;;1.55;0.52;;;7.50;75.40;;;;;;5115549;28;20038;-76
2023/04/01 06:42:37;;;;;;;2.38;0.70;;;7.60;74.30;;;;;;5115853;28;20028;-76
2023/04/01 06:45:46;;;;;;;3.03;0.50;;;7.70;74.30;;;;;;5115444;28;20054;-77
2023/04/01 06:48:39;;;;;;;2.92;0.70;;;7.70;74.50;;;;;;5115551;28;20039;-77
2023/04/01 06:51:23;;;;;;;0.98;0.45;;;7.70;74.90;;;;;;5115400;28;20012;-76
2023/04/01 06:54:10;;;;;;;1.80;0.57;;;7.70;75.40;;;;;;5115580;28;20027;-78
2023/04/01 06:56:39;;;;;;;2.50;0.50;;;7.80;75.70;;;;;;5115286;28;20450;-76
2023/04/01 06:59:18;;;;;;;1.48;0.60;;;7.80;75.20;;;;;;5098367;28;20028;-77
2023/04/01 07:01:50;;;;;;;1.42;0.65;;;7.70;76.30;;;;;;5115166;28;20733;-79
2023/04/01 07:04:33;;;;;;;3.08;0.70;;;7.70;75.10;;;;;;5114599;28;20020;-76
2023/04/01 07:07:04;;;;;;;2.03;0.63;;;7.70;76.10;;;;;;5116570;27;20601;-76
2023/04/01 07:09:40;;;;;;;3.42;0.90;;;7.60;77.10;;;;;;5115199;28;20040;-79
2023/04/01 07:12:31;;;;;;;3.97;0.57;;;7.60;77.10;;;;;;5091959;28;20023;-76
2023/04/01 07:15:00;;;;;;;3.47;0.70;;;7.60;77.70;;;;;;5115012;28;20036;-78
2023/04/01 07:17:31;;;;;;;2.03;0.50;;;7.70;76.50;;;;;;5098114;28;20034;-76
2023/04/01 07:20:12;;;;;;;1.58;0.55;;;7.70;76.50;;;;;;5108210;28;20109;-76
2023/04/01 07:22:44;;;;;;;1.40;0.32;;;7.70;77.60;;;;;;5094793;28;20025;-75
2023/04/01 07:25:16;;;;;;;1.85;0.70;;;7.60;76.80;;;;;;5094912;28;20111;-75
2023/04/01 07:27:44;;;;;;;1.10;0.30;;;7.60;77.20;;;;;;5092984;28;20187;-75
2023/04/01 07:30:47;;;;;;;4.35;0.50;;;7.70;76.30;;;;;;5094555;28;20032;-75
2023/04/01 07:33:22;;;;;;;1.63;0.40;;;7.60;77.10;;;;;;5094058;28;20034;-75
2023/04/01 07:36:07;;;;;;;0.90;0.35;;;7.60;76.50;;;;;;5094835;28;20546;-76
2023/04/01 07:39:05;;;;;;;1.45;0.50;;;7.70;77.20;;;;;;5094455;28;20026;-75
2023/04/01 07:41:53;;;;;;;2.17;0.40;;;7.70;76.50;;;;;;5094186;28;20127;-78
2023/04/01 07:44:37;;;;;;;1.73;0.50;;;7.70;76.20;;;;;;5094283;28;20031;-78
2023/04/01 07:47:11;;;;;;;1.50;0.40;;;7.70;76.40;;;;;;5093987;28;20135;-78
2023/04/01 07:49:42;;;;;;;0.80;0.30;;;7.80;76.30;;;;;;5094319;28;20047;-78
2023/04/01 07:52:36;;;;;;;1.67;0.45;;;7.80;77.00;;;;;;5094268;28;20024;-77
2023/04/01 07:55:15;;;;;;;1.77;0.38;;;7.80;76.20;;;;;;5094195;28;20048;-79
2023/04/01 07:58:13;;;;;;;3.28;0.50;;;7.90;75.00;;;;;;5093500;28;20016;-80
2023/04/01 08:01:19;;;;;;;0.77;0.28;;;7.80;75.80;;;;;;5093789;28;20035;-78
2023/04/01 08:03:56;;;;;;;0.32;0.20;;;7.70;75.70;;;;;;5093782;28;20047;-79
2023/04/01 08:06:39;;;;;;;0.95;0.40;;;7.70;76.70;;;;;;5093569;28;20036;-79
2023/04/01 08:09:39;;;;;;;0.20;0.20;;;7.80;76.00;;;;;;5093935;28;20121;-79
2023/04/01 08:12:20;;;;;;;1.85;0.30;;;7.70;75.00;;;;;;5093650;28;20024;-78
2023/04/01 08:14:58;;;;;;;0.82;0.25;;;7.80;75.30;;;;;;5100580;28;20027;-78
2023/04/01 08:17:23;;;;;;;0.32;0.20;;;7.80;75.00;;;;;;5113854;28;20023;-78
2023/04/01 08:20:17;;;;;;;0.65;0.22;;;7.90;75.30;;;;;;5113860;28;20027;-77
2023/04/01 08:22:50;;;;;;;0.73;0.20;;;7.80;75.70;;;;;;5113952;28;20012;-77
2023/04/01 08:25:28;;;;;;;0.60;0.20;;;7.80;75.60;;;;;;5113822;28;20027;-78
2023/04/01 08:28:00;;;;;;;0.82;0.30;;;7.90;75.40;;;;;;5113450;28;20096;-77
2023/04/01 08:30:49;;;;;;;0.88;0.40;;;7.80;76.70;;;;;;5113517;28;20054;-78
2023/04/01 08:33:32;;;;;;;1.77;0.68;;;7.90;76.00;;;;;;5112704;28;20024;-79
2023/04/01 08:36:01;;;;;;;0.60;0.13;;;7.90;75.30;;;;;;5113504;28;20047;-77
2023/04/01 08:38:56;;;;;;;0.45;0.20;;;7.80;75.40;;;;;;5113381;28;20049;-76
2023/04/01 08:41:48;;;;;;;1.58;0.30;;;7.80;75.80;;;;;;5101663;28;20474;-77
2023/04/01 08:44:23;;;;;;;2.45;0.45;;;7.70;76.90;;;;;;5114455;28;20020;-77
2023/04/01 08:47:00;;;;;;;1.15;0.28;;;7.80;76.70;;;;;;5112858;28;20400;-77
2023/04/01 08:49:35;;;;;;;0.20;0.20;;;7.70;76.10;;;;;;5112842;28;20039;-77
2023/04/01 08:52:33;;;;;;;1.85;0.20;;;7.70;77.30;;;;;;5113109;28;20023;-77
2023/04/01 08:55:36;;;;;;;2.08;0.60;;;7.70;76.60;;;;;;5113289;28;20035;-78
2023/04/01 08:58:14;;;;;;;0.40;0.25;;;7.80;76.00;;;;;;5108163;28;20019;-77
2023/04/01 09:01:10;;;;;;;1.00;0.30;;;7.80;75.00;;;;;;5097156;28;20046;-76
2023/04/01 09:03:39;;;;;;;0.32;0.22;;;7.90;75.60;;;;;;5092207;28;20407;-76
2023/04/01 09:06:53;;;;;;;1.10;0.30;;;7.90;75.10;;;;;;5092420;28;20054;-76
2023/04/01 09:09:25;;;;;;;0.50;0.10;;;7.90;75.50;;;;;;4994835;28;20033;-77
2023/04/01 09:12:12;;;;;;;0.20;0.10;;;7.80;74.90;;;;;;5011479;28;20022;-78
2023/04/01 09:15:11;;;;;;;0.32;0.20;;;7.90;74.80;;;;;;5057615;28;20058;-78
2023/04/01 09:18:05;;;;;;;0.68;0.35;;;7.90;76.20;;;;;;5092103;28;20031;-78
2023/04/01 09:21:11;;;;;;;0.57;0.40;;;7.90;75.80;;;;;;5093579;28;20020;-77
2023/04/01 09:23:57;;;;;;;0.22;0.15;;;7.90;77.00;;;;;;5092272;28;20473;-77
2023/04/01 09:26:55;;;;;;;1.20;0.30;;;8.00;76.30;;;;;;5092302;28;20036;-78
2023/04/01 09:29:37;;;;;;;0.90;0.20;;;7.90;76.20;;;;;;5093195;28;20036;-77
2023/04/01 09:32:33;;;;;;;3.42;0.40;;;7.80;76.10;;;;;;5092400;28;20024;-76
2023/04/01 09:35:21;;;;;;;0.98;0.40;;;7.80;77.30;;;;;;5091454;28;20097;-80
2023/04/01 09:38:18;;;;;;;0.93;0.43;;;7.80;78.60;;;;;;5091914;28;20039;-79
2023/04/01 09:40:57;;;;;;;0.73;0.20;;;7.70;77.60;;;;;;5090635;28;20438;-79
2023/04/01 09:43:48;;;;;;;0.55;0.20;;;7.80;78.00;;;;;;5091846;28;20380;-80
2023/04/01 09:46:14;;;;;;;0.32;0.13;;;7.70;77.60;;;;;;5090771;28;20085;-80
2023/04/01 09:49:19;;;;;;;1.23;0.45;;;7.70;78.50;;;;;;5092993;28;20376;-77
2023/04/01 09:52:02;;;;;;;0.80;0.30;;;7.60;78.80;;;;;;5040154;28;20490;-77
2023/04/01 09:54:52;;;;;;;0.25;0.22;;;7.60;79.10;;;;;;5092173;28;20024;-77
2023/04/01 09:57:30;;;;;;;2.25;0.43;;;7.50;78.70;;;;;;5091967;28;20024;-77
2023/04/01 10:00:31;;;;;;;0.98;0.60;;;7.60;79.50;;;;;;5095688;28;20357;-77
2023/04/01 10:03:15;;;;;;;0.30;0.30;;;7.60;79.60;;;;;;5092132;28;20024;-76
2023/04/01 10:06:22;;;;;;;0.30;0.30;;;7.60;79.10;;;;;;5093154;28;20426;-77
2023/04/01 10:09:26;;;;;;;1.17;0.30;;;7.60;79.60;;;;;;5091146;28;20500;-76
2023/04/01 10:12:01;;;;;;;0.55;0.22;;;7.60;80.10;;;;;;5091642;28;20024;-77
2023/04/01 10:14:48;;;;;;;0.73;0.45;;;7.70;80.80;;;;;;5091200;28;20318;-76
2023/04/01 10:17:58;;;;;;;0.63;0.13;;;7.60;79.10;;;;;;5091534;28;20024;-77
2023/04/01 10:20:53;;;;;;;0.35;0.10;;;7.50;80.30;;;;;;5079677;28;20060;-77
2023/04/01 10:23:19;;;;;;;0.20;0.20;;;7.60;80.00;;;;;;5073839;28;20469;-77
2023/04/01 10:26:17;;;;;;;0.40;0.32;;;7.60;80.50;;;;;;5091290;28;20069;-77
2023/04/01 10:29:48;;;;;;;0.90;0.50;;;7.60;79.60;;;;;;5091477;28;20058;-76
2023/04/01 10:32:36;;;;;;;0.90;0.40;;;7.60;79.00;;;;;;5021744;28;20473;-77
2023/04/01 10:35:51;;;;;;;0.20;0.20;;;7.60;80.00;;;;;;5091375;28;20035;-77
2023/04/01 10:38:44;;;;;;;1.73;0.50;;;7.60;79.90;;;;;;5090831;28;20063;-77
2023/04/01 10:41:35;;;;;;;0.40;0.20;;;7.60;79.00;;;;;;5090866;28;20105;-78
2023/04/01 10:44:24;;;;;;;1.13;0.32;;;7.70;79.50;;;;;;5090970;28;20028;-75
2023/04/01 10:47:02;;;;;;;0.90;0.30;;;7.70;80.40;;;;;;5091046;28;20053;-77
2023/04/01 10:49:35;;;;;;;0.75;0.28;;;7.70;80.80;;;;;;5091110;28;20047;-77
2023/04/01 10:52:39;;;;;;;0.47;0.20;;;7.90;80.70;;;;;;5093542;28;20031;-77
2023/04/01 10:55:31;;;;;;;1.55;0.57;;;7.90;79.50;;;;;;5091105;28;20065;-78
2023/04/01 10:58:22;;;;;;;0.77;0.32;;;8.00;79.00;;;;;;5046543;28;20040;-77
2023/04/01 11:01:14;;;;;;;0.82;0.60;;;7.90;79.00;;;;;;5052690;28;20089;-78
2023/04/01 11:04:11;;;;;;;1.08;0.30;;;8.00;79.20;;;;;;5092860;28;20020;-79
2023/04/01 11:07:16;;;;;;;0.60;0.25;;;7.90;80.10;;;;;;5094876;28;20019;-80
2023/04/01 11:10:23;;;;;;;0.82;0.40;;;7.80;78.70;;;;;;5094490;28;20054;-78
2023/04/01 11:13:23;;;;;;;2.65;0.30;;;7.80;79.60;;;;;;5093848;28;20036;-76
2023/04/01 11:16:11;;;;;;;1.75;0.30;;;7.80;79.70;;;;;;5094744;28;20028;-79
2023/04/01 11:19:14;;;;;;;1.25;0.60;;;7.90;81.70;;;;;;5102667;28;20032;-77
2023/04/01 11:22:17;;;;;;;0.95;0.40;;;8.00;80.10;;;;;;5104691;28;20111;-77
2023/04/01 11:24:49;;;;;;;1.27;0.60;;;8.00;80.10;;;;;;5099418;28;20448;-77
2023/04/01 11:27:42;;;;;;;0.50;0.30;;;8.10;78.40;;;;;;5094574;28;20360;-76
2023/04/01 11:30:28;;;;;;;1.65;0.50;;;8.10;79.80;;;;;;5094746;28;20093;-78
2023/04/01 11:33:00;;;;;;;0.55;0.30;;;8.30;80.30;;;;;;5094713;28;20024;-77
2023/04/01 11:35:41;;;;;;;1.33;0.43;;;8.30;79.10;;;;;;5094576;28;20427;-77
2023/04/01 11:38:50;;;;;;;0.22;0.17;;;8.30;78.30;;;;;;5094122;28;20028;-80
2023/04/01 11:41:31;;;;;;;0.57;0.38;;;8.40;78.40;;;;;;5094173;28;20084;-75
2023/04/01 11:44:23;;;;;;;0.82;0.30;;;8.40;77.20;;;;;;5094263;28;20027;-75
2023/04/01 11:47:32;;;;;;;1.52;0.60;;;8.50;78.10;;;;;;5078350;28;20099;-75
2023/04/01 11:50:28;;;;;;;1.90;0.28;;;8.50;77.20;;;;;;5093887;28;20032;-75
2023/04/01 11:53:22;;;;;;;0.95;0.20;;;8.40;78.20;;;;;;5093823;28;20503;-76
2023/04/01 11:56:11;;;;;;;0.20;0.20;;;8.50;78.30;;;;;;5094051;28;20021;-75
2023/04/01 11:59:00;;;;;;;0.77;0.20;;;8.70;77.30;;;;;;5093995;28;20185;-76
2023/04/01 12:02:00;;;;;;;0.73;0.30;;;8.60;77.30;;;;;;5093320;28;20024;-75
2023/04/01 12:05:00;;;;;;;0.10;0.10;;;8.80;76.70;;;;;;5093851;28;20029;-77
2023/04/01 12:07:56;;;;;;;0.95;0.55;;;8.80;77.70;;;;;;5098085;28;20035;-77
2023/04/01 12:10:38;;;;;;;0.73;0.52;;;8.80;78.10;;;;;;5118272;28;20059;-78
2023/04/01 12:13:34;;;;;;;0.80;0.30;;;8.90;77.10;;;;;;5093338;28;20027;-81
2023/04/01 12:16:31;;;;;;;0.52;0.30;;;8.90;77.70;;;;;;5055195;28;20079;-77
2023/04/01 12:19:22;;;;;;;0.55;0.35;;;8.90;78.20;;;;;;5055615;28;20028;-76
2023/04/01 12:21:50;;;;;;;1.17;0.60;;;8.90;78.00;;;;;;5055309;28;20036;-77
2023/04/01 12:24:47;;;;;;;0.55;0.30;;;8.70;77.90;;;;;;5055257;28;20218;-76
2023/04/01 12:27:19;;;;;;;1.27;0.52;;;8.80;78.00;;;;;;5055145;28;20121;-76
2023/04/01 12:30:17;;;;;;;0.88;0.68;;;8.70;77.20;;;;;;5055318;28;20106;-76
2023/04/01 12:33:00;;;;;;;1.25;0.73;;;8.60;76.80;;;;;;5018425;28;20032;-77
2023/04/01 12:35:56;;;;;;;1.08;0.68;;;8.60;76.70;;;;;;5054951;28;20119;-76
2023/04/01 12:38:43;;;;;;;0.30;0.25;;;8.70;77.50;;;;;;5055220;28;20032;-75
2023/04/01 12:41:36;;;;;;;0.22;0.20;;;8.80;77.50;;;;;;5054624;28;20036;-77
2023/04/01 12:44:23;;;;;;;0.10;0.10;;;8.70;77.80;;;;;;5054730;28;20025;-77
2023/04/01 12:47:14;;;;;;;1.20;0.28;;;8.80;76.40;;;;;;5071099;28;20044;-77
2023/04/01 12:50:07;;;;;;;0.68;0.20;;;8.80;75.00;;;;;;5109920;28;20070;-77
2023/04/01 12:53:02;;;;;;;0.88;0.20;;;8.80;75.00;;;;;;5109719;28;20024;-78
2023/04/01 12:55:52;;;;;;;0.32;0.30;;;8.90;75.10;;;;;;5109614;28;20020;-76
2023/04/01 12:58:30;;;;;;;2.33;0.32;;;8.80;73.80;;;;;;5092762;28;20085;-78
2023/04/01 13:01:09;;;;;;;0.20;0.20;;;8.80;74.10;;;;;;5093024;28;20027;-79
2023/04/01 13:03:44;;;;;;;0.25;0.10;;;9.00;73.40;;;;;;5109333;28;20028;-77
2023/04/01 13:06:21;;;;;;;0.20;0.20;;;9.10;73.60;;;;;;5109280;28;20032;-77
2023/04/01 13:09:04;;;;;;;0.10;0.10;;;9.10;73.20;;;;;;5092617;28;20047;-77
2023/04/01 13:11:29;;;;;;;1.00;0.38;;;9.00;74.80;;;;;;5092560;28;20047;-77
2023/04/01 13:14:06;;;;;;;0.63;0.30;;;9.30;73.60;;;;;;5109279;28;20505;-78
2023/04/01 13:16:58;;;;;;;0.20;0.10;;;9.50;71.40;;;;;;5109060;28;20070;-77
2023/04/01 13:19:53;;;;;;;0.30;0.17;;;9.70;70.50;;;;;;5082810;28;20028;-77
2023/04/01 13:23:01;;;;;;;1.98;0.40;;;9.70;68.60;;;;;;5077477;28;20027;-78
2023/04/01 13:25:40;;;;;;;0.82;0.50;;;9.90;71.60;;;;;;5091534;28;20032;-77
2023/04/01 13:28:29;;;;;;;1.33;0.20;;;10.00;68.60;;;;;;5109358;28;20054;-78
2023/04/01 13:31:00;;;;;;;0.70;0.50;;;10.10;69.40;;;;;;5097172;28;20114;-77
2023/04/01 13:33:47;;;;;;;1.27;0.50;;;10.10;68.10;;;;;;5108248;28;20074;-77
2023/04/01 13:36:28;;;;;;;0.68;0.40;;;10.00;69.40;;;;;;5091873;28;20024;-75
2023/04/01 13:39:13;;;;;;;2.10;0.65;;;10.20;68.80;;;;;;5092052;28;20113;-75
2023/04/01 13:42:00;;;;;;;1.27;0.40;;;10.10;67.00;;;;;;5091592;28;20117;-76
2023/04/01 13:44:32;;;;;;;1.42;0.30;;;9.90;69.10;;;;;;5108952;28;20053;-76
2023/04/01 13:47:17;;;;;;;1.60;0.60;;;9.70;68.90;;;;;;5108578;28;20051;-76
2023/04/01 13:50:10;;;;;;;0.20;0.20;;;9.60;70.70;;;;;;5091795;28;20063;-76
2023/04/01 13:52:55;;;;;;;0.45;0.40;;;9.60;69.70;;;;;;5093121;28;20023;-77
2023/04/01 13:55:32;;;;;;;0.95;0.60;;;9.50;70.00;;;;;;5108570;28;20384;-77
2023/04/01 13:58:03;;;;;;;0.70;0.30;;;9.60;70.30;;;;;;5108709;28;20059;-77